sensor_id;sensor_type;location;lat;lon;timestamp;temperature;humidity
39865;DHT22;25538;48.392;9.976;2022-12-04T00:02:19;1.10;99.90
39865;DHT22;25538;48.392;9.976;2022-12-04T00:04:44;1.10;99.90
39865;DHT22;25538;48.392;9.976;2022-12-04T00:07:10;1.20;99.90
39865;DHT22;25538;48.392;9.976;2022-12-04T00:09:36;1.10;99.90
39865;DHT22;25538;48.392;9.976;2022-12-04T00:12:02;1.00;99.90
39865;DHT22;25538;48.392;9.976;2022-12-04T00:14:28;1.10;99.90
39865;DHT22;25538;48.392;9.976;2022-12-04T00:16:54;1.10;99.90
39865;DHT22;25538;48.392;9.976;2022-12-04T00:19:20;1.20;99.90
39865;DHT22;25538;48.392;9.976;2022-12-04T00:21:48;1.20;99.90
39865;DHT22;25538;48.392;9.976;2022-12-04T00:24:15;1.20;99.90
39865;DHT22;25538;48.392;9.976;2022-12-04T00:26:41;1.20;99.90
39865;DHT22;25538;48.392;9.976;2022-12-04T00:29:07;1.10;99.90
39865;DHT22;25538;48.392;9.976;2022-12-04T00:31:33;1.10;99.90
39865;DHT22;25538;48.392;9.976;2022-12-04T00:33:59;1.10;99.90
39865;DHT22;25538;48.392;9.976;2022-12-04T00:36:27;1.10;99.90
39865;DHT22;25538;48.392;9.976;2022-12-04T00:38:54;1.10;99.90
39865;DHT22;25538;48.392;9.976;2022-12-04T00:41:23;1.10;99.90
39865;DHT22;25538;48.392;9.976;2022-12-04T00:43:49;1.10;99.90
39865;DHT22;25538;48.392;9.976;2022-12-04T00:46:15;1.10;99.90
39865;DHT22;25538;48.392;9.976;2022-12-04T00:48:42;1.10;99.90
39865;DHT22;25538;48.392;9.976;2022-12-04T00:51:12;1.10;99.90
39865;DHT22;25538;48.392;9.976;2022-12-04T00:53:38;1.00;99.90
39865;DHT22;25538;48.392;9.976;2022-12-04T00:56:06;1.10;99.90
39865;DHT22;25538;48.392;9.976;2022-12-04T00:58:33;1.10;99.90
39865;DHT22;25538;48.392;9.976;2022-12-04T01:01:05;1.10;99.90
39865;DHT22;25538;48.392;9.976;2022-12-04T01:03:32;1.10;99.90
39865;DHT22;25538;48.392;9.976;2022-12-04T01:05:59;1.10;99.90
39865;DHT22;25538;48.392;9.976;2022-12-04T01:08:25;1.10;99.90
39865;DHT22;25538;48.392;9.976;2022-12-04T01:10:51;1.10;99.90
39865;DHT22;25538;48.392;9.976;2022-12-04T01:13:17;1.10;99.90
39865;DHT22;25538;48.392;9.976;2022-12-04T01:15:43;1.10;99.90
39865;DHT22;25538;48.392;9.976;2022-12-04T01:18:10;1.10;99.90
39865;DHT22;25538;48.392;9.976;2022-12-04T01:20:36;1.10;99.90
39865;DHT22;25538;48.392;9.976;2022-12-04T01:23:02;1.10;99.90
39865;DHT22;25538;48.392;9.976;2022-12-04T01:25:28;1.10;99.90
39865;DHT22;25538;48.392;9.976;2022-12-04T01:27:55;1.10;99.90
39865;DHT22;25538;48.392;9.976;2022-12-04T01:30:21;1.10;99.90
39865;DHT22;25538;48.392;9.976;2022-12-04T01:32:47;1.10;99.90
39865;DHT22;25538;48.392;9.976;2022-12-04T01:35:13;1.20;99.90
39865;DHT22;25538;48.392;9.976;2022-12-04T01:37:38;1.20;99.90
39865;DHT22;25538;48.392;9.976;2022-12-04T01:40:06;1.20;99.90
39865;DHT22;25538;48.392;9.976;2022-12-04T01:42:32;1.20;99.90
39865;DHT22;25538;48.392;9.976;2022-12-04T01:45:27;1.20;99.90
39865;DHT22;25538;48.392;9.976;2022-12-04T01:50:38;1.10;99.90
39865;DHT22;25538;48.392;9.976;2022-12-04T01:53:05;1.10;99.90
39865;DHT22;25538;48.392;9.976;2022-12-04T01:55:31;1.20;99.90
39865;DHT22;25538;48.392;9.976;2022-12-04T01:57:58;1.10;99.90
39865;DHT22;25538;48.392;9.976;2022-12-04T02:00:25;1.10;99.90
39865;DHT22;25538;48.392;9.976;2022-12-04T02:02:51;1.20;99.90
39865;DHT22;25538;48.392;9.976;2022-12-04T02:05:19;1.10;99.90
39865;DHT22;25538;48.392;9.976;2022-12-04T02:07:47;1.20;99.90
39865;DHT22;25538;48.392;9.976;2022-12-04T02:10:13;1.20;99.90
39865;DHT22;25538;48.392;9.976;2022-12-04T02:13:14;1.20;99.90
39865;DHT22;25538;48.392;9.976;2022-12-04T02:18:34;1.10;99.90
39865;DHT22;25538;48.392;9.976;2022-12-04T02:21:42;1.10;99.90
39865;DHT22;25538;48.392;9.976;2022-12-04T02:27:00;1.20;99.90
39865;DHT22;25538;48.392;9.976;2022-12-04T02:32:17;1.20;99.90
39865;DHT22;25538;48.392;9.976;2022-12-04T02:34:56;1.10;99.90
39865;DHT22;25538;48.392;9.976;2022-12-04T02:37:33;1.10;99.90
39865;DHT22;25538;48.392;9.976;2022-12-04T02:40:08;1.10;99.90
39865;DHT22;25538;48.392;9.976;2022-12-04T02:42:42;1.10;99.90
39865;DHT22;25538;48.392;9.976;2022-12-04T02:45:12;1.10;99.90
39865;DHT22;25538;48.392;9.976;2022-12-04T02:47:41;1.00;99.90
39865;DHT22;25538;48.392;9.976;2022-12-04T02:50:13;1.00;99.90
39865;DHT22;25538;48.392;9.976;2022-12-04T02:52:44;1.00;99.90
39865;DHT22;25538;48.392;9.976;2022-12-04T02:55:16;1.10;99.90
39865;DHT22;25538;48.392;9.976;2022-12-04T02:57:48;1.00;99.90
39865;DHT22;25538;48.392;9.976;2022-12-04T03:00:16;1.00;99.90
39865;DHT22;25538;48.392;9.976;2022-12-04T03:02:59;1.00;99.90
39865;DHT22;25538;48.392;9.976;2022-12-04T03:05:37;1.00;99.90
39865;DHT22;25538;48.392;9.976;2022-12-04T03:08:09;1.10;99.90
39865;DHT22;25538;48.392;9.976;2022-12-04T03:10:42;1.10;99.90
39865;DHT22;25538;48.392;9.976;2022-12-04T03:13:14;1.10;99.90
39865;DHT22;25538;48.392;9.976;2022-12-04T03:15:47;1.10;99.90
39865;DHT22;25538;48.392;9.976;2022-12-04T03:18:25;1.00;99.90
39865;DHT22;25538;48.392;9.976;2022-12-04T03:21:00;1.00;99.90
39865;DHT22;25538;48.392;9.976;2022-12-04T03:23:51;1.00;99.90
39865;DHT22;25538;48.392;9.976;2022-12-04T03:26:26;1.00;99.90
39865;DHT22;25538;48.392;9.976;2022-12-04T03:29:21;1.00;99.90
39865;DHT22;25538;48.392;9.976;2022-12-04T03:31:58;1.10;99.90
39865;DHT22;25538;48.392;9.976;2022-12-04T03:34:34;1.10;99.90
39865;DHT22;25538;48.392;9.976;2022-12-04T03:37:07;1.10;99.90
39865;DHT22;25538;48.392;9.976;2022-12-04T03:39:41;1.10;99.90
39865;DHT22;25538;48.392;9.976;2022-12-04T03:42:17;1.10;99.90
39865;DHT22;25538;48.392;9.976;2022-12-04T03:44:51;1.20;99.90
39865;DHT22;25538;48.392;9.976;2022-12-04T03:47:33;1.20;99.90
39865;DHT22;25538;48.392;9.976;2022-12-04T03:50:20;1.20;99.90
39865;DHT22;25538;48.392;9.976;2022-12-04T03:52:55;1.20;99.90
39865;DHT22;25538;48.392;9.976;2022-12-04T03:58:04;1.20;99.90
39865;DHT22;25538;48.392;9.976;2022-12-04T04:00:32;1.30;99.90
39865;DHT22;25538;48.392;9.976;2022-12-04T04:03:23;1.30;99.90
39865;DHT22;25538;48.392;9.976;2022-12-04T04:05:52;1.20;99.90
39865;DHT22;25538;48.392;9.976;2022-12-04T04:08:23;1.30;99.90
39865;DHT22;25538;48.392;9.976;2022-12-04T04:11:04;1.30;99.90
39865;DHT22;25538;48.392;9.976;2022-12-04T04:13:37;1.30;99.90
39865;DHT22;25538;48.392;9.976;2022-12-04T04:16:26;1.30;99.90
39865;DHT22;25538;48.392;9.976;2022-12-04T04:19:14;1.40;99.90
39865;DHT22;25538;48.392;9.976;2022-12-04T04:22:02;1.50;99.90
39865;DHT22;25538;48.392;9.976;2022-12-04T04:24:57;1.50;99.90
39865;DHT22;25538;48.392;9.976;2022-12-04T04:27:26;1.40;99.90
39865;DHT22;25538;48.392;9.976;2022-12-04T04:29:53;1.30;99.90
39865;DHT22;25538;48.392;9.976;2022-12-04T04:40:59;1.40;99.90
39865;DHT22;25538;48.392;9.976;2022-12-04T04:43:58;1.50;99.90
39865;DHT22;25538;48.392;9.976;2022-12-04T04:46:34;1.40;99.90
39865;DHT22;25538;48.392;9.976;2022-12-04T04:49:05;1.40;99.90
39865;DHT22;25538;48.392;9.976;2022-12-04T04:51:34;1.40;99.90
39865;DHT22;25538;48.392;9.976;2022-12-04T04:54:03;1.20;99.90
39865;DHT22;25538;48.392;9.976;2022-12-04T04:56:30;1.20;99.90
39865;DHT22;25538;48.392;9.976;2022-12-04T04:58:56;1.20;99.90
39865;DHT22;25538;48.392;9.976;2022-12-04T05:01:26;1.30;99.90
39865;DHT22;25538;48.392;9.976;2022-12-04T05:03:52;1.40;99.90
39865;DHT22;25538;48.392;9.976;2022-12-04T05:06:18;1.40;99.90
39865;DHT22;25538;48.392;9.976;2022-12-04T05:08:44;1.40;99.90
39865;DHT22;25538;48.392;9.976;2022-12-04T05:11:13;1.40;99.90
39865;DHT22;25538;48.392;9.976;2022-12-04T05:13:40;1.40;99.90
39865;DHT22;25538;48.392;9.976;2022-12-04T05:16:10;1.40;99.90
39865;DHT22;25538;48.392;9.976;2022-12-04T05:18:36;1.40;99.90
39865;DHT22;25538;48.392;9.976;2022-12-04T05:21:09;1.50;99.90
39865;DHT22;25538;48.392;9.976;2022-12-04T05:23:42;1.50;99.90
39865;DHT22;25538;48.392;9.976;2022-12-04T05:26:08;1.50;99.90
39865;DHT22;25538;48.392;9.976;2022-12-04T05:28:34;1.50;99.90
39865;DHT22;25538;48.392;9.976;2022-12-04T05:31:01;1.50;99.90
39865;DHT22;25538;48.392;9.976;2022-12-04T05:33:28;1.50;99.90
39865;DHT22;25538;48.392;9.976;2022-12-04T05:35:59;1.50;99.90
39865;DHT22;25538;48.392;9.976;2022-12-04T05:38:26;1.40;99.90
39865;DHT22;25538;48.392;9.976;2022-12-04T05:40:52;1.30;99.90
39865;DHT22;25538;48.392;9.976;2022-12-04T05:43:18;1.30;99.90
39865;DHT22;25538;48.392;9.976;2022-12-04T05:45:44;1.40;99.90
39865;DHT22;25538;48.392;9.976;2022-12-04T05:48:10;1.40;99.90
39865;DHT22;25538;48.392;9.976;2022-12-04T05:50:39;1.40;99.90
39865;DHT22;25538;48.392;9.976;2022-12-04T05:53:05;1.50;99.90
39865;DHT22;25538;48.392;9.976;2022-12-04T05:55:31;1.40;99.90
39865;DHT22;25538;48.392;9.976;2022-12-04T05:57:57;1.40;99.90
39865;DHT22;25538;48.392;9.976;2022-12-04T06:00:23;1.40;99.90
39865;DHT22;25538;48.392;9.976;2022-12-04T06:02:49;1.30;99.90
39865;DHT22;25538;48.392;9.976;2022-12-04T06:05:15;1.30;99.90
39865;DHT22;25538;48.392;9.976;2022-12-04T06:07:41;1.30;99.90
39865;DHT22;25538;48.392;9.976;2022-12-04T06:10:07;1.30;99.90
39865;DHT22;25538;48.392;9.976;2022-12-04T06:12:33;1.30;99.90
39865;DHT22;25538;48.392;9.976;2022-12-04T06:14:59;1.40;99.90
39865;DHT22;25538;48.392;9.976;2022-12-04T06:17:25;1.40;99.90
39865;DHT22;25538;48.392;9.976;2022-12-04T06:19:51;1.40;99.90
39865;DHT22;25538;48.392;9.976;2022-12-04T06:22:18;1.50;99.90
39865;DHT22;25538;48.392;9.976;2022-12-04T06:24:44;1.50;99.90
39865;DHT22;25538;48.392;9.976;2022-12-04T06:27:10;1.50;99.90
39865;DHT22;25538;48.392;9.976;2022-12-04T06:29:36;1.60;99.90
39865;DHT22;25538;48.392;9.976;2022-12-04T06:32:02;1.60;99.90
39865;DHT22;25538;48.392;9.976;2022-12-04T06:34:28;1.60;99.90
39865;DHT22;25538;48.392;9.976;2022-12-04T06:36:54;1.60;99.90
39865;DHT22;25538;48.392;9.976;2022-12-04T06:39:20;1.70;99.90
39865;DHT22;25538;48.392;9.976;2022-12-04T06:41:46;1.70;99.90
39865;DHT22;25538;48.392;9.976;2022-12-04T06:44:13;1.70;99.90
39865;DHT22;25538;48.392;9.976;2022-12-04T06:46:40;1.70;99.90
39865;DHT22;25538;48.392;9.976;2022-12-04T06:49:06;1.70;99.90
39865;DHT22;25538;48.392;9.976;2022-12-04T06:51:36;1.70;99.90
39865;DHT22;25538;48.392;9.976;2022-12-04T06:54:03;1.70;99.90
39865;DHT22;25538;48.392;9.976;2022-12-04T06:56:30;1.70;99.90
39865;DHT22;25538;48.392;9.976;2022-12-04T06:58:58;1.70;99.90
39865;DHT22;25538;48.392;9.976;2022-12-04T07:01:26;1.70;99.90
39865;DHT22;25538;48.392;9.976;2022-12-04T07:03:53;1.80;99.90
39865;DHT22;25538;48.392;9.976;2022-12-04T07:06:23;1.70;99.90
39865;DHT22;25538;48.392;9.976;2022-12-04T07:08:53;1.70;99.90
39865;DHT22;25538;48.392;9.976;2022-12-04T07:11:20;1.80;99.90
39865;DHT22;25538;48.392;9.976;2022-12-04T07:13:47;1.80;99.90
39865;DHT22;25538;48.392;9.976;2022-12-04T07:16:15;1.70;99.90
39865;DHT22;25538;48.392;9.976;2022-12-04T07:18:41;1.70;99.90
39865;DHT22;25538;48.392;9.976;2022-12-04T07:21:09;1.80;99.90
39865;DHT22;25538;48.392;9.976;2022-12-04T07:23:36;1.80;99.90
39865;DHT22;25538;48.392;9.976;2022-12-04T07:26:09;1.80;99.90
39865;DHT22;25538;48.392;9.976;2022-12-04T07:28:36;1.80;99.90
39865;DHT22;25538;48.392;9.976;2022-12-04T07:31:06;1.80;99.90
39865;DHT22;25538;48.392;9.976;2022-12-04T07:33:33;1.80;99.90
39865;DHT22;25538;48.392;9.976;2022-12-04T07:36:00;1.80;99.90
39865;DHT22;25538;48.392;9.976;2022-12-04T07:38:28;1.80;99.90
39865;DHT22;25538;48.392;9.976;2022-12-04T07:40:55;1.80;99.90
39865;DHT22;25538;48.392;9.976;2022-12-04T07:43:22;1.80;99.90
39865;DHT22;25538;48.392;9.976;2022-12-04T07:45:48;1.80;99.90
39865;DHT22;25538;48.392;9.976;2022-12-04T07:48:14;1.80;99.90
39865;DHT22;25538;48.392;9.976;2022-12-04T07:50:40;1.80;99.90
39865;DHT22;25538;48.392;9.976;2022-12-04T07:53:05;1.70;99.90
39865;DHT22;25538;48.392;9.976;2022-12-04T07:55:31;1.80;99.90
39865;DHT22;25538;48.392;9.976;2022-12-04T07:57:57;1.70;99.90
39865;DHT22;25538;48.392;9.976;2022-12-04T08:00:23;1.70;99.90
39865;DHT22;25538;48.392;9.976;2022-12-04T08:02:49;1.80;99.90
39865;DHT22;25538;48.392;9.976;2022-12-04T08:05:16;1.80;99.90
39865;DHT22;25538;48.392;9.976;2022-12-04T08:07:42;1.80;99.90
39865;DHT22;25538;48.392;9.976;2022-12-04T08:10:08;1.90;99.90
39865;DHT22;25538;48.392;9.976;2022-12-04T08:12:34;1.80;99.90
39865;DHT22;25538;48.392;9.976;2022-12-04T08:15:01;1.80;99.90
39865;DHT22;25538;48.392;9.976;2022-12-04T08:17:27;1.80;99.90
39865;DHT22;25538;48.392;9.976;2022-12-04T08:19:53;1.90;99.90
39865;DHT22;25538;48.392;9.976;2022-12-04T08:22:18;1.80;99.90
39865;DHT22;25538;48.392;9.976;2022-12-04T08:24:44;1.90;99.90
39865;DHT22;25538;48.392;9.976;2022-12-04T08:27:10;1.90;99.90
39865;DHT22;25538;48.392;9.976;2022-12-04T08:29:36;1.90;99.90
39865;DHT22;25538;48.392;9.976;2022-12-04T08:32:02;2.00;99.90
39865;DHT22;25538;48.392;9.976;2022-12-04T08:34:28;2.00;99.90
39865;DHT22;25538;48.392;9.976;2022-12-04T08:36:54;2.00;99.90
39865;DHT22;25538;48.392;9.976;2022-12-04T08:39:20;2.10;99.90
39865;DHT22;25538;48.392;9.976;2022-12-04T08:41:46;2.10;99.90
39865;DHT22;25538;48.392;9.976;2022-12-04T08:44:12;2.10;99.90
39865;DHT22;25538;48.392;9.976;2022-12-04T08:46:38;2.10;99.90
39865;DHT22;25538;48.392;9.976;2022-12-04T08:49:04;2.00;99.90
39865;DHT22;25538;48.392;9.976;2022-12-04T08:51:32;2.00;99.90
39865;DHT22;25538;48.392;9.976;2022-12-04T08:54:04;2.00;99.90
39865;DHT22;25538;48.392;9.976;2022-12-04T08:56:31;2.00;99.90
39865;DHT22;25538;48.392;9.976;2022-12-04T08:58:58;2.00;99.90
39865;DHT22;25538;48.392;9.976;2022-12-04T09:01:25;2.00;99.90
39865;DHT22;25538;48.392;9.976;2022-12-04T09:03:51;2.00;99.90
39865;DHT22;25538;48.392;9.976;2022-12-04T09:06:18;2.10;99.90
39865;DHT22;25538;48.392;9.976;2022-12-04T09:08:44;2.00;99.90
39865;DHT22;25538;48.392;9.976;2022-12-04T09:11:18;2.00;99.90
39865;DHT22;25538;48.392;9.976;2022-12-04T09:13:45;2.10;99.90
39865;DHT22;25538;48.392;9.976;2022-12-04T09:16:20;2.10;99.90
39865;DHT22;25538;48.392;9.976;2022-12-04T09:18:46;2.10;99.90
39865;DHT22;25538;48.392;9.976;2022-12-04T09:21:14;2.10;99.90
39865;DHT22;25538;48.392;9.976;2022-12-04T09:23:41;2.10;99.90
39865;DHT22;25538;48.392;9.976;2022-12-04T09:26:24;2.10;99.90
39865;DHT22;25538;48.392;9.976;2022-12-04T09:28:51;2.10;99.90
39865;DHT22;25538;48.392;9.976;2022-12-04T09:31:18;2.20;99.90
39865;DHT22;25538;48.392;9.976;2022-12-04T09:33:45;2.30;99.90
39865;DHT22;25538;48.392;9.976;2022-12-04T09:36:11;2.30;99.90
39865;DHT22;25538;48.392;9.976;2022-12-04T09:38:42;2.30;99.90
39865;DHT22;25538;48.392;9.976;2022-12-04T09:44:27;2.40;99.90
39865;DHT22;25538;48.392;9.976;2022-12-04T09:49:57;2.20;99.90
39865;DHT22;25538;48.392;9.976;2022-12-04T09:52:40;2.20;99.90
39865;DHT22;25538;48.392;9.976;2022-12-04T09:55:17;2.30;99.90
39865;DHT22;25538;48.392;9.976;2022-12-04T09:57:47;2.30;99.90
39865;DHT22;25538;48.392;9.976;2022-12-04T10:00:17;2.30;99.90
39865;DHT22;25538;48.392;9.976;2022-12-04T10:02:51;2.20;99.90
39865;DHT22;25538;48.392;9.976;2022-12-04T10:11:16;2.20;99.90
39865;DHT22;25538;48.392;9.976;2022-12-04T10:16:53;2.30;99.90
39865;DHT22;25538;48.392;9.976;2022-12-04T10:19:56;2.20;99.90
39865;DHT22;25538;48.392;9.976;2022-12-04T10:25:15;2.20;99.90
39865;DHT22;25538;48.392;9.976;2022-12-04T10:27:54;2.20;99.90
39865;DHT22;25538;48.392;9.976;2022-12-04T10:30:30;2.30;99.90
39865;DHT22;25538;48.392;9.976;2022-12-04T10:32:59;2.30;99.90
39865;DHT22;25538;48.392;9.976;2022-12-04T10:35:32;2.40;99.90
39865;DHT22;25538;48.392;9.976;2022-12-04T10:38:08;2.40;99.90
39865;DHT22;25538;48.392;9.976;2022-12-04T10:40:43;2.40;99.90
39865;DHT22;25538;48.392;9.976;2022-12-04T10:43:14;2.40;99.90
39865;DHT22;25538;48.392;9.976;2022-12-04T10:45:42;2.40;99.90
39865;DHT22;25538;48.392;9.976;2022-12-04T10:48:17;2.40;99.90
39865;DHT22;25538;48.392;9.976;2022-12-04T10:50:45;2.50;99.90
39865;DHT22;25538;48.392;9.976;2022-12-04T10:53:13;2.50;99.90
39865;DHT22;25538;48.392;9.976;2022-12-04T10:55:39;2.50;99.90
39865;DHT22;25538;48.392;9.976;2022-12-04T10:58:16;2.60;99.90
39865;DHT22;25538;48.392;9.976;2022-12-04T11:00:43;2.60;99.90
39865;DHT22;25538;48.392;9.976;2022-12-04T11:03:24;2.60;99.90
39865;DHT22;25538;48.392;9.976;2022-12-04T11:06:00;2.70;99.90
39865;DHT22;25538;48.392;9.976;2022-12-04T11:08:40;2.70;99.90
39865;DHT22;25538;48.392;9.976;2022-12-04T11:11:12;2.70;99.90
39865;DHT22;25538;48.392;9.976;2022-12-04T11:13:39;2.70;99.90
39865;DHT22;25538;48.392;9.976;2022-12-04T11:16:06;2.70;99.90
39865;DHT22;25538;48.392;9.976;2022-12-04T11:18:47;2.70;99.90
39865;DHT22;25538;48.392;9.976;2022-12-04T11:21:16;2.70;99.90
39865;DHT22;25538;48.392;9.976;2022-12-04T11:23:48;2.70;99.90
39865;DHT22;25538;48.392;9.976;2022-12-04T11:26:37;2.70;99.90
39865;DHT22;25538;48.392;9.976;2022-12-04T11:29:04;2.70;99.90
39865;DHT22;25538;48.392;9.976;2022-12-04T11:31:30;2.80;99.90
39865;DHT22;25538;48.392;9.976;2022-12-04T11:34:06;2.70;99.90
39865;DHT22;25538;48.392;9.976;2022-12-04T11:36:35;2.80;99.90
39865;DHT22;25538;48.392;9.976;2022-12-04T11:39:39;2.90;99.90
39865;DHT22;25538;48.392;9.976;2022-12-04T11:44:37;2.90;99.90
39865;DHT22;25538;48.392;9.976;2022-12-04T11:47:13;2.90;99.90
39865;DHT22;25538;48.392;9.976;2022-12-04T11:49:41;2.90;99.90
39865;DHT22;25538;48.392;9.976;2022-12-04T11:55:23;3.00;99.90
39865;DHT22;25538;48.392;9.976;2022-12-04T12:13:13;2.90;99.90
39865;DHT22;25538;48.392;9.976;2022-12-04T12:16:43;2.80;99.90
39865;DHT22;25538;48.392;9.976;2022-12-04T12:21:26;2.80;99.90
39865;DHT22;25538;48.392;9.976;2022-12-04T12:34:43;2.80;99.90
39865;DHT22;25538;48.392;9.976;2022-12-04T12:42:35;2.90;99.90
39865;DHT22;25538;48.392;9.976;2022-12-04T12:45:06;2.90;99.90
39865;DHT22;25538;48.392;9.976;2022-12-04T12:47:42;3.00;99.90
39865;DHT22;25538;48.392;9.976;2022-12-04T12:51:36;3.10;99.90
39865;DHT22;25538;48.392;9.976;2022-12-04T12:53:33;3.00;99.90
39865;DHT22;25538;48.392;9.976;2022-12-04T12:56:03;3.00;99.90
39865;DHT22;25538;48.392;9.976;2022-12-04T12:58:34;3.10;99.90
39865;DHT22;25538;48.392;9.976;2022-12-04T13:01:15;3.00;99.90
39865;DHT22;25538;48.392;9.976;2022-12-04T13:06:38;3.00;99.90
39865;DHT22;25538;48.392;9.976;2022-12-04T13:11:37;3.00;99.90
39865;DHT22;25538;48.392;9.976;2022-12-04T13:14:04;3.00;99.90
39865;DHT22;25538;48.392;9.976;2022-12-04T13:16:39;3.00;99.90
39865;DHT22;25538;48.392;9.976;2022-12-04T13:19:21;2.90;99.90
39865;DHT22;25538;48.392;9.976;2022-12-04T13:33:01;2.80;99.90
39865;DHT22;25538;48.392;9.976;2022-12-04T13:36:07;2.80;99.90
39865;DHT22;25538;48.392;9.976;2022-12-04T13:41:09;2.80;99.90
39865;DHT22;25538;48.392;9.976;2022-12-04T13:48:50;2.80;99.90
39865;DHT22;25538;48.392;9.976;2022-12-04T13:53:45;2.90;99.90
39865;DHT22;25538;48.392;9.976;2022-12-04T13:56:26;2.90;99.90
39865;DHT22;25538;48.392;9.976;2022-12-04T13:59:00;2.80;99.90
39865;DHT22;25538;48.392;9.976;2022-12-04T14:01:36;2.90;99.90
39865;DHT22;25538;48.392;9.976;2022-12-04T14:04:04;3.00;99.90
39865;DHT22;25538;48.392;9.976;2022-12-04T14:06:33;2.90;99.90
39865;DHT22;25538;48.392;9.976;2022-12-04T14:09:03;3.00;99.90
39865;DHT22;25538;48.392;9.976;2022-12-04T14:11:41;3.00;99.90
39865;DHT22;25538;48.392;9.976;2022-12-04T14:17:32;3.00;99.90
39865;DHT22;25538;48.392;9.976;2022-12-04T14:20:01;3.10;99.90
39865;DHT22;25538;48.392;9.976;2022-12-04T14:30:24;3.00;99.90
39865;DHT22;25538;48.392;9.976;2022-12-04T14:32:58;3.00;99.90
39865;DHT22;25538;48.392;9.976;2022-12-04T14:35:27;3.00;99.90
39865;DHT22;25538;48.392;9.976;2022-12-04T14:37:54;3.00;99.90
39865;DHT22;25538;48.392;9.976;2022-12-04T14:40:42;3.10;99.90
39865;DHT22;25538;48.392;9.976;2022-12-04T14:43:23;3.00;99.90
39865;DHT22;25538;48.392;9.976;2022-12-04T14:46:05;2.80;99.90
39865;DHT22;25538;48.392;9.976;2022-12-04T14:49:01;2.80;99.90
39865;DHT22;25538;48.392;9.976;2022-12-04T14:51:41;2.70;99.90
39865;DHT22;25538;48.392;9.976;2022-12-04T14:54:25;2.70;99.90
39865;DHT22;25538;48.392;9.976;2022-12-04T15:00:01;2.60;99.90
39865;DHT22;25538;48.392;9.976;2022-12-04T15:02:37;2.60;99.90
39865;DHT22;25538;48.392;9.976;2022-12-04T15:05:11;2.60;99.90
39865;DHT22;25538;48.392;9.976;2022-12-04T15:07:47;2.60;99.90
39865;DHT22;25538;48.392;9.976;2022-12-04T15:10:26;2.70;99.90
39865;DHT22;25538;48.392;9.976;2022-12-04T15:13:11;2.70;99.90
39865;DHT22;25538;48.392;9.976;2022-12-04T15:15:44;2.70;99.90
39865;DHT22;25538;48.392;9.976;2022-12-04T15:18:15;2.70;99.90
39865;DHT22;25538;48.392;9.976;2022-12-04T15:23:12;2.70;99.90
39865;DHT22;25538;48.392;9.976;2022-12-04T15:25:51;2.70;99.90
39865;DHT22;25538;48.392;9.976;2022-12-04T15:28:20;2.70;99.90
39865;DHT22;25538;48.392;9.976;2022-12-04T15:30:49;2.60;99.90
39865;DHT22;25538;48.392;9.976;2022-12-04T15:33:21;2.70;99.90
39865;DHT22;25538;48.392;9.976;2022-12-04T15:36:17;2.70;99.90
39865;DHT22;25538;48.392;9.976;2022-12-04T15:38:46;2.70;99.90
39865;DHT22;25538;48.392;9.976;2022-12-04T15:41:33;2.80;99.90
39865;DHT22;25538;48.392;9.976;2022-12-04T15:44:00;2.80;99.90
39865;DHT22;25538;48.392;9.976;2022-12-04T15:46:34;2.90;99.90
39865;DHT22;25538;48.392;9.976;2022-12-04T15:49:17;2.90;99.90
39865;DHT22;25538;48.392;9.976;2022-12-04T15:51:47;2.90;99.90
39865;DHT22;25538;48.392;9.976;2022-12-04T15:54:22;2.90;99.90
39865;DHT22;25538;48.392;9.976;2022-12-04T15:57:00;2.80;99.90
39865;DHT22;25538;48.392;9.976;2022-12-04T15:59:27;2.80;99.90
39865;DHT22;25538;48.392;9.976;2022-12-04T16:01:55;2.80;99.90
39865;DHT22;25538;48.392;9.976;2022-12-04T16:04:27;2.80;99.90
39865;DHT22;25538;48.392;9.976;2022-12-04T16:06:53;2.80;99.90
39865;DHT22;25538;48.392;9.976;2022-12-04T16:09:23;2.90;99.90
39865;DHT22;25538;48.392;9.976;2022-12-04T16:12:26;2.90;99.90
39865;DHT22;25538;48.392;9.976;2022-12-04T16:14:56;2.90;99.90
39865;DHT22;25538;48.392;9.976;2022-12-04T16:17:28;2.90;99.90
39865;DHT22;25538;48.392;9.976;2022-12-04T16:19:55;2.90;99.90
39865;DHT22;25538;48.392;9.976;2022-12-04T16:22:22;2.90;99.90
39865;DHT22;25538;48.392;9.976;2022-12-04T16:24:49;2.80;99.90
39865;DHT22;25538;48.392;9.976;2022-12-04T16:27:21;2.90;99.90
39865;DHT22;25538;48.392;9.976;2022-12-04T16:29:51;2.90;99.90
39865;DHT22;25538;48.392;9.976;2022-12-04T16:32:20;2.90;99.90
39865;DHT22;25538;48.392;9.976;2022-12-04T16:34:47;2.90;99.90
39865;DHT22;25538;48.392;9.976;2022-12-04T16:37:18;2.90;99.90
39865;DHT22;25538;48.392;9.976;2022-12-04T16:39:44;3.00;99.90
39865;DHT22;25538;48.392;9.976;2022-12-04T16:44:44;3.00;99.90
39865;DHT22;25538;48.392;9.976;2022-12-04T16:47:11;2.90;99.90
39865;DHT22;25538;48.392;9.976;2022-12-04T16:49:38;2.90;99.90
39865;DHT22;25538;48.392;9.976;2022-12-04T16:52:04;2.80;99.90
39865;DHT22;25538;48.392;9.976;2022-12-04T16:54:30;2.80;99.90
39865;DHT22;25538;48.392;9.976;2022-12-04T16:56:56;2.90;99.90
39865;DHT22;25538;48.392;9.976;2022-12-04T16:59:22;2.90;99.90
39865;DHT22;25538;48.392;9.976;2022-12-04T17:01:49;2.80;99.90
39865;DHT22;25538;48.392;9.976;2022-12-04T17:04:16;2.90;99.90
39865;DHT22;25538;48.392;9.976;2022-12-04T17:06:43;2.90;99.90
39865;DHT22;25538;48.392;9.976;2022-12-04T17:09:09;3.00;99.90
39865;DHT22;25538;48.392;9.976;2022-12-04T17:11:35;3.00;99.90
39865;DHT22;25538;48.392;9.976;2022-12-04T17:14:02;3.00;99.90
39865;DHT22;25538;48.392;9.976;2022-12-04T17:16:36;3.00;99.90
39865;DHT22;25538;48.392;9.976;2022-12-04T17:19:03;3.00;99.90
39865;DHT22;25538;48.392;9.976;2022-12-04T17:21:29;2.90;99.90
39865;DHT22;25538;48.392;9.976;2022-12-04T17:23:55;2.90;99.90
39865;DHT22;25538;48.392;9.976;2022-12-04T17:26:21;2.90;99.90
39865;DHT22;25538;48.392;9.976;2022-12-04T17:28:51;3.00;99.90
39865;DHT22;25538;48.392;9.976;2022-12-04T17:31:20;3.00;99.90
39865;DHT22;25538;48.392;9.976;2022-12-04T17:33:46;2.90;99.90
39865;DHT22;25538;48.392;9.976;2022-12-04T17:36:18;3.00;99.90
39865;DHT22;25538;48.392;9.976;2022-12-04T17:38:45;3.00;99.90
39865;DHT22;25538;48.392;9.976;2022-12-04T17:41:13;3.00;99.90
39865;DHT22;25538;48.392;9.976;2022-12-04T17:43:41;3.00;99.90
39865;DHT22;25538;48.392;9.976;2022-12-04T17:46:12;3.10;99.90
39865;DHT22;25538;48.392;9.976;2022-12-04T17:48:38;3.10;99.90
39865;DHT22;25538;48.392;9.976;2022-12-04T17:51:08;3.10;99.90
39865;DHT22;25538;48.392;9.976;2022-12-04T17:53:35;3.10;99.90
39865;DHT22;25538;48.392;9.976;2022-12-04T17:56:06;3.10;99.90
39865;DHT22;25538;48.392;9.976;2022-12-04T17:58:33;3.10;99.90
39865;DHT22;25538;48.392;9.976;2022-12-04T18:01:08;3.10;99.90
39865;DHT22;25538;48.392;9.976;2022-12-04T18:03:34;3.10;99.90
39865;DHT22;25538;48.392;9.976;2022-12-04T18:06:10;3.10;99.90
39865;DHT22;25538;48.392;9.976;2022-12-04T18:08:36;3.00;99.90
39865;DHT22;25538;48.392;9.976;2022-12-04T18:11:03;3.00;99.90
39865;DHT22;25538;48.392;9.976;2022-12-04T18:13:29;3.00;99.90
39865;DHT22;25538;48.392;9.976;2022-12-04T18:15:55;3.10;99.90